Time;durP1;ratioP1;P1;durP2;ratioP2;P2;SDS_P1;SDS_P2;PMS_P1;PMS_P2;Temp;Humidity;BMP_temperature;BMP_pressure;BME280_temperature;BME280_humidity;BME280_pressure;Samples;Min_cycle;Max_cycle;Signal;HPM_P1;HPM_P2
2023/03/23 00:02:39;;;;;;;;;;;;;;;20.26;39.15;95196.63;10477304;28;2123;-60
2023/03/23 00:07:45;;;;;;;;;;;;;;;20.25;39.14;95199.56;10483868;28;1984;-58
2023/03/23 00:12:49;;;;;;;;;;;;;;;20.24;39.17;95195.34;10460452;28;1964;-60
2023/03/23 00:17:50;;;;;;;;;;;;;;;20.22;39.11;95195.63;10477734;28;1952;-60
2023/03/23 00:22:51;;;;;;;;;;;;;;;20.21;39.08;95190.66;10480332;28;2048;-60
2023/03/23 00:27:52;;;;;;;;;;;;;;;20.20;39.17;95187.25;10482032;28;2042;-59
2023/03/23 00:32:52;;;;;;;;;;;;;;;20.19;38.98;95184.88;10479900;28;1998;-60
2023/03/23 00:38:04;;;;;;;;;;;;;;;20.19;38.96;95190.94;10475336;28;1986;-59
2023/03/23 00:43:05;;;;;;;;;;;;;;;20.17;39.01;95182.50;10478615;28;2044;-59
2023/03/23 00:48:05;;;;;;;;;;;;;;;20.17;39.16;95184.38;10474765;28;2110;-59
2023/03/23 00:53:06;;;;;;;;;;;;;;;20.16;38.89;95180.16;10480134;28;1957;-61
2023/03/23 00:58:08;;;;;;;;;;;;;;;20.15;39.08;95181.25;10476225;28;2091;-61
2023/03/23 01:03:08;;;;;;;;;;;;;;;20.14;38.95;95180.44;10476665;28;2004;-61
2023/03/23 01:08:10;;;;;;;;;;;;;;;20.14;38.78;95175.19;10477786;28;2052;-61
2023/03/23 01:13:15;;;;;;;;;;;;;;;20.13;38.86;95170.97;10474190;28;2091;-62
2023/03/23 01:18:16;;;;;;;;;;;;;;;20.12;39.11;95174.69;10470951;28;1972;-61
2023/03/23 01:23:17;;;;;;;;;;;;;;;20.12;39.07;95173.91;10480310;28;1974;-61
2023/03/23 01:28:18;;;;;;;;;;;;;;;20.12;39.01;95168.63;10479157;28;2004;-61
2023/03/23 01:33:18;;;;;;;;;;;;;;;20.10;38.96;95160.25;10479005;28;1952;-60
2023/03/23 01:38:19;;;;;;;;;;;;;;;20.09;38.81;95159.47;10480123;28;1971;-61
2023/03/23 01:43:19;;;;;;;;;;;;;;;20.08;39.04;95171.06;10479091;28;1991;-61
2023/03/23 01:48:20;;;;;;;;;;;;;;;20.09;39.00;95166.59;10495840;28;2068;-60
2023/03/23 01:53:22;;;;;;;;;;;;;;;20.07;38.95;95176.63;10484768;28;1937;-61
2023/03/23 01:58:25;;;;;;;;;;;;;;;20.07;38.93;95168.72;10461247;28;1972;-61
2023/03/23 02:03:26;;;;;;;;;;;;;;;20.07;38.90;95168.72;10485541;28;2123;-60
2023/03/23 02:08:27;;;;;;;;;;;;;;;20.06;38.96;95165.31;10484422;28;1956;-61
2023/03/23 02:13:28;;;;;;;;;;;;;;;20.06;38.90;95151.34;10469930;28;1936;-61
2023/03/23 02:18:38;;;;;;;;;;;;;;;20.05;38.65;95152.44;10488211;28;2124;-61
2023/03/23 02:23:59;;;;;;;;;;;;;;;20.04;38.58;95146.38;10492728;28;2067;-61
2023/03/23 02:29:20;;;;;;;;;;;;;;;20.03;38.71;95144.06;10483271;28;2044;-61
2023/03/23 02:34:25;;;;;;;;;;;;;;;20.03;38.81;95138.78;10480674;28;2078;-61
2023/03/23 02:39:26;;;;;;;;;;;;;;;20.02;38.62;95142.47;10488407;28;2089;-60
2023/03/23 02:44:29;;;;;;;;;;;;;;;20.02;38.53;95137.22;10465286;28;2274;-61
2023/03/23 02:49:31;;;;;;;;;;;;;;;20.01;38.57;95141.69;10481427;28;1977;-60
2023/03/23 02:54:32;;;;;;;;;;;;;;;20.01;38.74;95146.19;10484247;28;1961;-61
2023/03/23 02:59:33;;;;;;;;;;;;;;;20.00;38.51;95147.22;10465107;28;1992;-61
2023/03/23 03:04:34;;;;;;;;;;;;;;;20.00;38.70;95144.59;10482946;28;2035;-61
2023/03/23 03:09:42;;;;;;;;;;;;;;;19.98;38.44;95141.47;10448929;28;1989;-61
2023/03/23 03:14:52;;;;;;;;;;;;;;;19.97;38.72;95135.44;10472709;28;2024;-60
2023/03/23 03:19:58;;;;;;;;;;;;;;;19.98;38.63;95130.94;10478007;28;1982;-61
2023/03/23 03:24:58;;;;;;;;;;;;;;;19.96;38.34;95128.63;10471514;28;2003;-61
2023/03/23 03:29:59;;;;;;;;;;;;;;;19.96;38.49;95125.19;10467567;28;2038;-60
2023/03/23 03:35:00;;;;;;;;;;;;;;;19.95;38.67;95131.50;10460883;28;1983;-60
2023/03/23 03:40:01;;;;;;;;;;;;;;;19.95;38.56;95134.13;10484837;28;1955;-59
2023/03/23 03:45:02;;;;;;;;;;;;;;;19.94;38.42;95140.47;10478018;28;1990;-60
2023/03/23 03:50:02;;;;;;;;;;;;;;;19.95;38.62;95147.28;10486953;28;2032;-60
2023/03/23 03:55:03;;;;;;;;;;;;;;;19.93;38.51;95152.84;10463623;28;2006;-60
2023/03/23 04:00:16;;;;;;;;;;;;;;;19.93;38.54;95154.69;10474417;28;2088;-60
2023/03/23 04:05:18;;;;;;;;;;;;;;;19.93;38.58;95157.31;10482279;28;2003;-60
2023/03/23 04:10:29;;;;;;;;;;;;;;;19.92;38.54;95156.56;10478936;28;1972;-60
2023/03/23 04:15:29;;;;;;;;;;;;;;;19.92;38.36;95153.13;10484104;28;2036;-61
2023/03/23 04:20:30;;;;;;;;;;;;;;;19.90;38.28;95156.06;10456163;28;1982;-60
2023/03/23 04:25:32;;;;;;;;;;;;;;;19.92;38.35;95161.03;10477355;28;1995;-61
2023/03/23 04:30:34;;;;;;;;;;;;;;;19.90;38.40;95163.16;10461960;28;1940;-60
2023/03/23 04:35:34;;;;;;;;;;;;;;;19.89;38.20;95169.47;10476483;28;2040;-60
2023/03/23 04:40:36;;;;;;;;;;;;;;;19.89;38.41;95172.09;10473845;28;2055;-60
2023/03/23 04:45:41;;;;;;;;;;;;;;;19.88;38.46;95173.19;10462626;28;2091;-60
2023/03/23 04:50:42;;;;;;;;;;;;;;;19.88;38.39;95171.34;10476678;28;2052;-59
2023/03/23 04:55:44;;;;;;;;;;;;;;;19.87;38.38;95166.34;10469668;28;1948;-60
2023/03/23 05:00:49;;;;;;;;;;;;;;;19.87;38.37;95175.00;10477688;28;2052;-60
2023/03/23 05:05:53;;;;;;;;;;;;;;;19.87;38.08;95176.84;10445874;28;2091;-60
2023/03/23 05:10:54;;;;;;;;;;;;;;;19.87;38.10;95175.00;10475207;28;2006;-60
2023/03/23 05:16:05;;;;;;;;;;;;;;;19.92;38.18;95176.81;10481207;28;1979;-60
2023/03/23 05:21:05;;;;;;;;;;;;;;;19.95;37.95;95178.84;10453024;28;2100;-60
2023/03/23 05:26:06;;;;;;;;;;;;;;;20.00;38.16;95184.06;10470021;28;2174;-59
2023/03/23 05:31:06;;;;;;;;;;;;;;;20.05;38.10;95191.91;10482309;28;2071;-61
2023/03/23 05:36:10;;;;;;;;;;;;;;;20.11;37.90;95202.06;10477542;28;1941;-60
2023/03/23 05:41:11;;;;;;;;;;;;;;;20.18;37.70;95209.59;10459380;28;1986;-60
2023/03/23 05:46:12;;;;;;;;;;;;;;;20.25;37.61;95202.97;10477991;28;2031;-60
2023/03/23 05:51:13;;;;;;;;;;;;;;;20.32;37.80;95184.16;10480499;28;2110;-60
2023/03/23 05:56:14;;;;;;;;;;;;;;;20.37;37.53;95160.41;10465305;28;1992;-61
2023/03/23 06:01:15;;;;;;;;;;;;;;;20.41;37.47;95140.34;10466486;28;2043;-60
2023/03/23 06:06:26;;;;;;;;;;;;;;;20.46;37.42;95135.03;10478432;28;2240;-60
2023/03/23 06:11:27;;;;;;;;;;;;;;;20.51;37.30;95127.03;10481722;28;1909;-60
2023/03/23 06:16:36;;;;;;;;;;;;;;;20.56;37.17;95141.97;10473418;28;1997;-60
2023/03/23 06:21:40;;;;;;;;;;;;;;;20.59;37.15;95144.81;10462850;28;1960;-60
2023/03/23 06:26:41;;;;;;;;;;;;;;;20.60;37.02;95162.19;10476675;28;1988;-60
2023/03/23 06:31:43;;;;;;;;;;;;;;;20.65;36.90;95164.72;10482519;28;2131;-60
2023/03/23 06:36:44;;;;;;;;;;;;;;;20.70;36.88;95169.91;10492288;28;2010;-60
2023/03/23 06:41:45;;;;;;;;;;;;;;;20.77;36.78;95165.03;10483081;28;2016;-60
2023/03/23 06:46:47;;;;;;;;;;;;;;;20.78;36.82;95152.66;10491801;28;2162;-61
2023/03/23 06:51:48;;;;;;;;;;;;;;;20.80;36.52;95148.69;10478624;28;2096;-60
2023/03/23 06:56:48;;;;;;;;;;;;;;;20.82;36.63;95140.47;10490068;28;2036;-60
2023/03/23 07:01:50;;;;;;;;;;;;;;;20.83;36.56;95128.88;10461353;28;2056;-60
2023/03/23 07:06:51;;;;;;;;;;;;;;;20.84;36.73;95136.50;10469663;28;2028;-60
2023/03/23 07:12:01;;;;;;;;;;;;;;;20.84;36.88;95143.59;10468928;28;2007;-60
2023/03/23 07:17:02;;;;;;;;;;;;;;;20.82;36.66;95149.16;10496101;28;2063;-60
2023/03/23 07:22:03;;;;;;;;;;;;;;;20.81;36.98;95158.13;10465638;28;1956;-60
2023/03/23 07:27:04;;;;;;;;;;;;;;;20.79;36.84;95154.25;10477279;28;2110;-60
2023/03/23 07:32:05;;;;;;;;;;;;;;;20.77;37.00;95148.47;10476350;28;2095;-60
2023/03/23 07:37:06;;;;;;;;;;;;;;;20.74;36.82;95149.03;10479413;28;2123;-60
2023/03/23 07:42:07;;;;;;;;;;;;;;;20.71;37.14;95142.50;10477541;28;2107;-60
2023/03/23 07:47:08;;;;;;;;;;;;;;;20.70;37.18;95143.59;10447181;28;2084;-60
2023/03/23 07:52:08;;;;;;;;;;;;;;;20.69;37.29;95142.00;10475697;28;1994;-60
2023/03/23 07:57:09;;;;;;;;;;;;;;;20.69;37.37;95143.88;10493852;28;2096;-60
2023/03/23 08:02:11;;;;;;;;;;;;;;;20.66;37.26;95145.22;10465243;28;2014;-60
2023/03/23 08:07:12;;;;;;;;;;;;;;;20.64;37.44;95139.47;10472565;28;2035;-60
2023/03/23 08:12:16;;;;;;;;;;;;;;;20.63;37.25;95137.88;10475327;28;2003;-61
2023/03/23 08:17:17;;;;;;;;;;;;;;;20.61;37.59;95139.28;10474164;28;2028;-60
2023/03/23 08:22:17;;;;;;;;;;;;;;;20.59;37.44;95146.66;10475695;28;1981;-60
2023/03/23 08:27:18;;;;;;;;;;;;;;;20.57;37.73;95139.03;10471983;28;1967;-60
2023/03/23 08:32:20;;;;;;;;;;;;;;;20.55;37.78;95156.19;10474495;28;1953;-60
2023/03/23 08:37:21;;;;;;;;;;;;;;;20.54;37.82;95160.69;10478570;28;2164;-60
2023/03/23 08:42:24;;;;;;;;;;;;;;;20.52;37.47;95154.94;10468756;28;2016;-59
2023/03/23 08:47:25;;;;;;;;;;;;;;;20.51;37.59;95155.19;10474866;28;1941;-61
2023/03/23 08:52:25;;;;;;;;;;;;;;;20.50;37.68;95170.25;10474358;28;2136;-60
2023/03/23 08:57:26;;;;;;;;;;;;;;;20.50;37.91;95180.78;10472301;28;2007;-61
2023/03/23 09:02:36;;;;;;;;;;;;;;;20.48;37.96;95196.06;10477707;28;2128;-60
2023/03/23 09:07:47;;;;;;;;;;;;;;;20.47;38.00;95191.84;10473306;28;2011;-61
2023/03/23 09:12:47;;;;;;;;;;;;;;;20.45;37.82;95191.38;10475784;28;1989;-60
2023/03/23 09:17:49;;;;;;;;;;;;;;;20.43;37.82;95206.66;10475693;28;1933;-60
2023/03/23 09:22:51;;;;;;;;;;;;;;;20.41;38.02;95203.53;10469726;28;2010;-60
2023/03/23 09:27:56;;;;;;;;;;;;;;;20.41;37.98;95208.78;10471754;28;1929;-60
2023/03/23 09:32:56;;;;;;;;;;;;;;;20.39;38.08;95216.19;10468607;28;2193;-60
2023/03/23 09:38:00;;;;;;;;;;;;;;;20.38;38.13;95216.50;10490307;28;1986;-60
2023/03/23 09:43:06;;;;;;;;;;;;;;;20.38;37.71;95221.75;10471761;28;1963;-60
2023/03/23 09:48:18;;;;;;;;;;;;;;;20.35;38.07;95220.47;10466003;28;1965;-60
2023/03/23 09:53:24;;;;;;;;;;;;;;;20.35;38.16;95207.31;10476855;28;1451;-60
2023/03/23 09:58:50;;;;;;;;;;;;;;;20.33;37.94;95217.34;10478061;28;1959;-60
2023/03/23 10:03:52;;;;;;;;;;;;;;;20.32;37.80;95215.75;10473658;28;1984;-60
2023/03/23 10:08:58;;;;;;;;;;;;;;;20.33;37.85;95221.81;10454779;28;1935;-60
2023/03/23 10:14:07;;;;;;;;;;;;;;;20.31;38.00;95218.69;10464893;28;1935;-60
2023/03/23 10:19:13;;;;;;;;;;;;;;;20.30;38.05;95217.13;10452151;28;2025;-60
2023/03/23 10:24:17;;;;;;;;;;;;;;;20.30;38.08;95217.88;10472934;28;1995;-60
2023/03/23 10:29:26;;;;;;;;;;;;;;;20.28;38.08;95227.91;10463320;28;1959;-60
2023/03/23 10:34:33;;;;;;;;;;;;;;;20.27;37.90;95221.91;10466725;28;1965;-60
2023/03/23 10:39:49;;;;;;;;;;;;;;;20.27;37.91;95231.63;10482015;28;1948;-60
2023/03/23 10:44:50;;;;;;;;;;;;;;;20.25;37.88;95225.88;10480244;28;1952;-60
2023/03/23 10:49:51;;;;;;;;;;;;;;;20.25;37.79;95216.13;10485412;28;1975;-60
2023/03/23 10:55:12;;;;;;;;;;;;;;;20.24;37.77;95221.66;10477285;28;2010;-60
2023/03/23 11:00:18;;;;;;;;;;;;;;;20.23;37.78;95226.16;10466723;28;1975;-60
2023/03/23 11:05:39;;;;;;;;;;;;;;;20.22;37.70;95223.78;10484121;28;2064;-60
2023/03/23 11:10:40;;;;;;;;;;;;;;;20.21;37.90;95220.41;10480619;28;2082;-60
2023/03/23 11:15:45;;;;;;;;;;;;;;;20.20;37.92;95229.34;10479340;28;1960;-59
2023/03/23 11:20:50;;;;;;;;;;;;;;;20.20;37.86;95228.56;10481719;28;2017;-60
2023/03/23 11:25:58;;;;;;;;;;;;;;;20.19;37.70;95216.44;10464996;28;2018;-60
2023/03/23 11:31:00;;;;;;;;;;;;;;;20.19;37.85;95212.00;10479182;28;1980;-60
2023/03/23 11:36:02;;;;;;;;;;;;;;;20.18;37.74;95209.59;10466795;28;2231;-60
2023/03/23 11:41:08;;;;;;;;;;;;;;;20.19;37.81;95211.19;10497565;28;1924;-60
2023/03/23 11:46:15;;;;;;;;;;;;;;;20.18;37.88;95213.03;10481182;28;2023;-61
2023/03/23 11:51:41;;;;;;;;;;;;;;;20.17;37.93;95205.44;10498720;28;1952;-61
2023/03/23 11:56:42;;;;;;;;;;;;;;;20.18;38.38;95197.25;10484836;28;1486;-60
2023/03/23 12:02:01;;;;;;;;;;;;;;;20.18;38.77;95196.44;10485721;28;1533;-60
2023/03/23 12:07:09;;;;;;;;;;;;;;;20.22;38.84;95198.25;10474475;28;1952;-60
2023/03/23 12:12:18;;;;;;;;;;;;;;;20.21;38.63;95195.94;10462257;28;2083;-60
2023/03/23 12:17:22;;;;;;;;;;;;;;;20.20;38.64;95191.72;10459677;28;2008;-60
2023/03/23 12:22:36;;;;;;;;;;;;;;;20.20;38.43;95192.50;10493409;28;1961;-60
2023/03/23 12:28:01;;;;;;;;;;;;;;;20.20;38.45;95186.44;10473613;28;2047;-60
2023/03/23 12:33:20;;;;;;;;;;;;;;;20.18;38.61;95181.44;10455740;28;1966;-60
2023/03/23 12:38:29;;;;;;;;;;;;;;;20.17;38.48;95185.13;10471495;28;2030;-61
2023/03/23 12:43:46;;;;;;;;;;;;;;;20.16;38.60;95182.78;10472796;28;1979;-60
2023/03/23 12:48:51;;;;;;;;;;;;;;;20.16;38.40;95164.38;10437731;28;1993;-60
2023/03/23 12:54:03;;;;;;;;;;;;;;;20.16;38.44;95167.00;10466669;28;1993;-61
2023/03/23 12:59:12;;;;;;;;;;;;;;;20.16;38.45;95172.25;10448873;28;2134;-60
2023/03/23 13:04:20;;;;;;;;;;;;;;;20.16;38.49;95159.09;10473403;28;2028;-60
2023/03/23 13:09:32;;;;;;;;;;;;;;;20.16;38.51;95156.47;10460024;28;1987;-60
2023/03/23 13:14:43;;;;;;;;;;;;;;;20.14;38.43;95156.78;10459217;28;1972;-60
2023/03/23 13:19:43;;;;;;;;;;;;;;;20.13;38.47;95155.19;10456122;28;1964;-60
2023/03/23 13:24:59;;;;;;;;;;;;;;;20.13;38.39;95159.69;10462846;28;1944;-60
2023/03/23 13:30:00;;;;;;;;;;;;;;;20.13;38.34;95157.06;10453265;28;2166;-61
2023/03/23 13:35:01;;;;;;;;;;;;;;;20.12;38.24;95152.84;10477899;28;1931;-61
2023/03/23 13:40:10;;;;;;;;;;;;;;;20.12;38.50;95161.53;10453845;28;2041;-61
2023/03/23 13:45:22;;;;;;;;;;;;;;;20.13;38.48;95154.44;10476934;28;1981;-61
2023/03/23 13:50:23;;;;;;;;;;;;;;;20.10;38.49;95145.25;10480966;28;1981;-61
2023/03/23 13:55:37;;;;;;;;;;;;;;;20.12;38.68;95155.47;10465870;28;1976;-61
2023/03/23 14:00:48;;;;;;;;;;;;;;;20.12;38.65;95155.47;10476273;28;2089;-61
2023/03/23 14:06:01;;;;;;;;;;;;;;;20.12;38.69;95147.59;10480320;28;2034;-61
2023/03/23 14:11:09;;;;;;;;;;;;;;;20.12;38.79;95152.84;10476442;28;2167;-61
2023/03/23 14:16:14;;;;;;;;;;;;;;;20.10;38.79;95145.25;10462889;28;2056;-61
2023/03/23 14:21:16;;;;;;;;;;;;;;;20.10;38.96;95150.50;10482002;28;1956;-60
2023/03/23 14:26:26;;;;;;;;;;;;;;;20.09;38.81;95143.66;10478901;28;1929;-61
2023/03/23 14:31:27;;;;;;;;;;;;;;;20.09;38.66;95146.31;10476014;28;2001;-61
2023/03/23 14:36:28;;;;;;;;;;;;;;;20.10;38.71;95145.25;10478264;28;2067;-61
2023/03/23 14:41:39;;;;;;;;;;;;;;;20.12;38.65;95152.84;10474956;28;1995;-61
2023/03/23 14:46:40;;;;;;;;;;;;;;;20.14;38.51;95150.72;10482335;28;2017;-61
2023/03/23 14:51:46;;;;;;;;;;;;;;;20.16;38.74;95145.94;10456811;28;2090;-61
2023/03/23 14:56:46;;;;;;;;;;;;;;;20.18;38.50;95155.13;10478448;28;1905;-59
2023/03/23 15:01:49;;;;;;;;;;;;;;;20.21;38.46;95157.25;10463164;28;2121;-60
2023/03/23 15:06:54;;;;;;;;;;;;;;;20.24;38.38;95148.75;10455503;28;1972;-61
2023/03/23 15:12:00;;;;;;;;;;;;;;;20.30;38.41;95156.59;10451166;28;2016;-61
2023/03/23 15:17:02;;;;;;;;;;;;;;;20.32;38.49;95152.59;10465114;28;2034;-61
2023/03/23 15:22:21;;;;;;;;;;;;;;;20.37;38.18;95157.00;10481695;28;1995;-59
2023/03/23 15:27:27;;;;;;;;;;;;;;;20.41;38.10;95168.53;10481542;28;1977;-60
2023/03/23 15:32:32;;;;;;;;;;;;;;;20.45;38.21;95158.97;10477525;28;2027;-61
2023/03/23 15:37:33;;;;;;;;;;;;;;;20.48;38.34;95172.38;10465366;28;2021;-60
2023/03/23 15:42:33;;;;;;;;;;;;;;;20.52;37.90;95167.31;10479082;28;1994;-61
2023/03/23 15:47:35;;;;;;;;;;;;;;;20.55;37.76;95164.09;10478025;28;1996;-60
2023/03/23 15:52:36;;;;;;;;;;;;;;;20.56;37.95;95158.56;10477421;28;1925;-60
2023/03/23 15:57:37;;;;;;;;;;;;;;;20.60;37.71;95164.81;10478473;28;1929;-60
2023/03/23 16:02:37;;;;;;;;;;;;;;;20.63;37.59;95163.47;10477127;28;1977;-60
2023/03/23 16:07:37;;;;;;;;;;;;;;;20.64;37.69;95159.75;10472125;28;2154;-60
2023/03/23 16:12:37;;;;;;;;;;;;;;;20.66;37.45;95158.41;10479237;28;2057;-61
2023/03/23 16:17:38;;;;;;;;;;;;;;;20.67;37.46;95157.31;10454531;28;2009;-61
2023/03/23 16:22:38;;;;;;;;;;;;;;;20.71;37.50;95158.28;10460839;28;1982;-61
2023/03/23 16:27:39;;;;;;;;;;;;;;;20.72;37.47;95164.34;10464186;28;1972;-61
2023/03/23 16:32:40;;;;;;;;;;;;;;;20.72;37.65;95173.03;10469110;28;2087;-61
2023/03/23 16:38:00;;;;;;;;;;;;;;;20.70;37.38;95175.19;10439464;28;2020;-61
2023/03/23 16:43:01;;;;;;;;;;;;;;;20.70;37.76;95175.19;10449294;28;2144;-61
2023/03/23 16:48:03;;;;;;;;;;;;;;;20.70;37.97;95177.81;10475425;28;2011;-59
2023/03/23 16:53:04;;;;;;;;;;;;;;;20.70;38.09;95179.66;10473907;28;1968;-60
2023/03/23 16:58:05;;;;;;;;;;;;;;;20.70;38.19;95169.13;10470090;28;1971;-60
2023/03/23 17:03:06;;;;;;;;;;;;;;;20.68;38.35;95171.28;10451122;28;1933;-61
2023/03/23 17:08:07;;;;;;;;;;;;;;;20.69;38.30;95172.84;10473132;28;2057;-60
2023/03/23 17:13:07;;;;;;;;;;;;;;;20.67;38.38;95170.47;10459400;28;1945;-61
2023/03/23 17:18:08;;;;;;;;;;;;;;;20.66;38.70;95176.03;10465764;28;2082;-61
2023/03/23 17:23:08;;;;;;;;;;;;;;;20.66;38.84;95181.31;10472146;28;1956;-62
2023/03/23 17:28:08;;;;;;;;;;;;;;;20.64;38.64;95178.97;10476610;28;1993;-61
2023/03/23 17:33:16;;;;;;;;;;;;;;;20.64;38.80;95176.34;10476521;28;1994;-62
2023/03/23 17:38:16;;;;;;;;;;;;;;;20.62;38.58;95170.56;10456985;28;2000;-60
2023/03/23 17:43:17;;;;;;;;;;;;;;;20.62;38.62;95177.69;10477053;28;1956;-60
2023/03/23 17:48:20;;;;;;;;;;;;;;;20.60;38.88;95177.97;10475681;28;1971;-60
2023/03/23 17:53:20;;;;;;;;;;;;;;;20.59;38.69;95188.78;10456666;28;2028;-60
2023/03/23 17:58:20;;;;;;;;;;;;;;;20.58;38.68;95185.38;10453207;28;1965;-60
2023/03/23 18:03:21;;;;;;;;;;;;;;;20.58;38.74;95179.31;10491450;28;2031;-60
2023/03/23 18:08:24;;;;;;;;;;;;;;;20.57;38.91;95190.91;10473904;28;2049;-60
2023/03/23 18:13:26;;;;;;;;;;;;;;;20.56;39.03;95205.94;10480603;28;1984;-60
2023/03/23 18:18:27;;;;;;;;;;;;;;;20.56;39.03;95200.69;10476070;28;1895;-60
2023/03/23 18:23:27;;;;;;;;;;;;;;;20.57;38.88;95196.19;10476807;28;1959;-60
2023/03/23 18:28:28;;;;;;;;;;;;;;;20.54;39.00;95212.56;10474068;28;1957;-60
2023/03/23 18:33:28;;;;;;;;;;;;;;;20.53;38.82;95216.25;10484669;28;1960;-60
2023/03/23 18:38:28;;;;;;;;;;;;;;;20.51;38.76;95216.53;10491515;28;1726;-59
2023/03/23 18:43:29;;;;;;;;;;;;;;;20.50;38.84;95212.38;10476682;28;1517;-59
2023/03/23 18:48:30;;;;;;;;;;;;;;;20.51;38.88;95218.38;10488748;28;1969;-60
2023/03/23 18:53:30;;;;;;;;;;;;;;;20.50;39.10;95227.38;10461838;28;2061;-60
2023/03/23 18:58:31;;;;;;;;;;;;;;;20.50;38.98;95222.91;10483447;28;1972;-60
2023/03/23 19:03:32;;;;;;;;;;;;;;;20.50;38.87;95228.16;10487576;28;2038;-61
2023/03/23 19:08:33;;;;;;;;;;;;;;;20.48;39.15;95225.03;10480737;28;1913;-61
2023/03/23 19:13:35;;;;;;;;;;;;;;;20.47;38.87;95226.09;10487675;28;1924;-61
2023/03/23 19:18:35;;;;;;;;;;;;;;;20.46;39.02;95221.91;10485536;28;2014;-61
2023/03/23 19:23:36;;;;;;;;;;;;;;;20.45;38.97;95230.06;10476902;28;1985;-61
2023/03/23 19:28:36;;;;;;;;;;;;;;;20.44;38.95;95228.50;10480732;28;1976;-60
2023/03/23 19:33:36;;;;;;;;;;;;;;;20.43;39.04;95227.72;10478779;28;2123;-61
2023/03/23 19:38:37;;;;;;;;;;;;;;;20.42;38.83;95226.16;10462848;28;2044;-60
2023/03/23 19:43:38;;;;;;;;;;;;;;;20.41;38.93;95221.16;10483716;28;2042;-61
2023/03/23 19:48:38;;;;;;;;;;;;;;;20.40;38.76;95220.41;10479184;28;2044;-62
2023/03/23 19:53:38;;;;;;;;;;;;;;;20.41;38.78;95229.06;10474270;28;2006;-61
2023/03/23 19:58:39;;;;;;;;;;;;;;;20.39;38.77;95232.00;10478159;28;2088;-62
2023/03/23 20:03:40;;;;;;;;;;;;;;;20.38;38.68;95219.13;10465760;28;2116;-61
2023/03/23 20:08:47;;;;;;;;;;;;;;;20.36;38.66;95219.38;10476916;28;2019;-62
2023/03/23 20:13:48;;;;;;;;;;;;;;;20.35;38.67;95225.72;10474644;28;1953;-61
2023/03/23 20:18:49;;;;;;;;;;;;;;;20.35;38.70;95215.19;10479095;28;1980;-62
2023/03/23 20:23:52;;;;;;;;;;;;;;;20.36;38.92;95222.00;10483398;28;1928;-61
2023/03/23 20:28:53;;;;;;;;;;;;;;;20.39;39.50;95218.03;10476305;28;1914;-61
2023/03/23 20:33:54;;;;;;;;;;;;;;;20.39;39.55;95221.47;10485440;28;1762;-62
2023/03/23 20:39:00;;;;;;;;;;;;;;;20.42;39.64;95223.53;10486582;28;1880;-62
2023/03/23 20:44:01;;;;;;;;;;;;;;;20.44;39.79;95228.50;10485369;28;1569;-64
2023/03/23 20:49:01;;;;;;;;;;;;;;;20.43;39.50;95222.47;10485104;28;1993;-62
2023/03/23 20:54:03;;;;;;;;;;;;;;;20.44;39.44;95218.78;10468427;28;1502;-62
2023/03/23 20:59:04;;;;;;;;;;;;;;;20.46;39.47;95216.63;10485334;28;1618;-62
2023/03/23 21:04:07;;;;;;;;;;;;;;;20.46;39.57;95214.00;10490602;28;1663;-63
2023/03/23 21:09:07;;;;;;;;;;;;;;;20.46;39.50;95219.28;10486854;28;1910;-63
2023/03/23 21:14:10;;;;;;;;;;;;;;;20.47;39.40;95215.56;10493465;28;1448;-63
2023/03/23 21:19:10;;;;;;;;;;;;;;;20.47;39.32;95205.03;10488099;28;1455;-62
2023/03/23 21:24:11;;;;;;;;;;;;;;;20.47;39.45;95201.59;10491955;28;1534;-62
2023/03/23 21:29:11;;;;;;;;;;;;;;;20.47;39.45;95202.38;10475034;28;1973;-62
2023/03/23 21:34:12;;;;;;;;;;;;;;;20.47;39.21;95199.75;10485241;28;1444;-62
2023/03/23 21:39:14;;;;;;;;;;;;;;;20.47;39.40;95197.13;10485079;28;1718;-62
2023/03/23 21:44:14;;;;;;;;;;;;;;;20.46;39.34;95189.53;10476903;28;1534;-62
2023/03/23 21:49:24;;;;;;;;;;;;;;;20.46;39.46;95190.31;10468867;28;1969;-62
2023/03/23 21:54:28;;;;;;;;;;;;;;;20.45;39.40;95177.41;10481195;28;1432;-61
2023/03/23 21:59:29;;;;;;;;;;;;;;;20.46;39.21;95181.63;10476232;28;1984;-62
2023/03/23 22:04:30;;;;;;;;;;;;;;;20.47;39.19;95170.78;10463562;28;2034;-63
2023/03/23 22:09:33;;;;;;;;;;;;;;;20.46;39.08;95163.97;10489993;28;1984;-62
2023/03/23 22:14:33;;;;;;;;;;;;;;;20.46;39.44;95150.81;10478418;28;1957;-63
2023/03/23 22:19:34;;;;;;;;;;;;;;;20.46;39.12;95144.75;10486090;28;1979;-63
2023/03/23 22:24:34;;;;;;;;;;;;;;;20.44;39.16;95137.16;10486396;28;1994;-67
2023/03/23 22:29:35;;;;;;;;;;;;;;;20.42;39.06;95131.41;10459425;28;2010;-64
2023/03/23 22:34:36;;;;;;;;;;;;;;;20.41;38.96;95124.56;10481186;28;2138;-63
2023/03/23 22:39:36;;;;;;;;;;;;;;;20.39;39.33;95126.69;10478276;28;1947;-63
2023/03/23 22:44:38;;;;;;;;;;;;;;;20.38;38.97;95113.81;10480999;28;2027;-63
2023/03/23 22:49:38;;;;;;;;;;;;;;;20.37;39.03;95105.16;10487683;28;2031;-64
2023/03/23 22:54:40;;;;;;;;;;;;;;;20.34;39.16;95105.69;10484120;28;1900;-64
2023/03/23 22:59:41;;;;;;;;;;;;;;;20.34;39.18;95091.78;10463428;28;2049;-64
2023/03/23 23:04:42;;;;;;;;;;;;;;;20.32;38.97;95097.31;10484360;28;2012;-63
2023/03/23 23:09:42;;;;;;;;;;;;;;;20.30;39.19;95078.41;10487731;28;2028;-63
2023/03/23 23:14:43;;;;;;;;;;;;;;;20.30;38.97;95086.28;10485826;28;1973;-64
2023/03/23 23:19:45;;;;;;;;;;;;;;;20.29;39.09;95074.22;10481244;28;2036;-63
2023/03/23 23:24:45;;;;;;;;;;;;;;;20.27;38.92;95071.09;10476069;28;2115;-63
2023/03/23 23:29:45;;;;;;;;;;;;;;;20.26;39.00;95066.88;10482490;28;1964;-63
2023/03/23 23:34:47;;;;;;;;;;;;;;;20.25;38.93;95058.22;10477134;28;1980;-63
2023/03/23 23:39:57;;;;;;;;;;;;;;;20.26;39.12;95051.09;10482093;28;1972;-64
2023/03/23 23:44:58;;;;;;;;;;;;;;;20.24;38.97;95055.84;10474934;28;1957;-63
2023/03/23 23:49:59;;;;;;;;;;;;;;;20.23;38.86;95052.47;10477840;28;2062;-65
2023/03/23 23:54:59;;;;;;;;;;;;;;;20.23;38.78;95056.94;10485192;28;2134;-63
